Vail, IA

1:30 PM CDT on May 30, 2015 (GMT -0500)
Audubon County | | Change Station
CLOSE
Current Station
Airport
Location: Audubon,
Elevation: 1286 ft
Nearby Weather Stations

Elev 1286 ft 41.70 °N, 94.92 °W | Updated 15 minutes ago

Mostly Cloudy
Mostly Cloudy
57 °F
Feels Like 57 °F
N
15
Wind Variable Wind from North
Gusts 20 mph

Today
High -- | Low -- °F
--% Chance of Precip.
Yesterday
High -- | Low -- °F
Precip. -- in
5:48 AM 8:48 PM
Waxing Gibbous, 91% visible
Pressure 30.19 in
Visibility 10.0 miles
Clouds Overcast 1500 ft
Dew Point 52 °F
Humidity 82%
Rainfall 0.01 in
Snow Depth Not available.
UV 4 out of 12
Pollen 7.00 out of 12
Air Quality Not available.
Flu Activity No Activity
METAR KADU 301815Z AUTO 36013G17KT 10SM OVC015 14/11 A3019 RMK AO2

More Conditions Fewer Conditions

Pressure 30.19 in
Visibility 10.0 miles
Clouds Overcast 1500 ft
Dew Point 52 °F
Humidity 82%
Rainfall 0.01 in
Snow Depth Not available.
UV 4 out of 12
Pollen 7.00 out of 12
Air Quality Not available.
Flu Activity No Activity
METAR KADU 301815Z AUTO 36013G17KT 10SM OVC015 14/11 A3019 RMK AO2

More Conditions Fewer Conditions

10-Day Weather Forecast

Almanac

Astronomy

May. 30, 2015 Rise Set
Actual Time
Civil Twilight
Nautical Twilight
Astronomical Twilight
Moon
Length of Visible Light
Length of Day
Tomorrow will be .
, % of the Moon is Illuminated

Today's Extremes

State Highs State Lows

Community

WunderPhotos

Upload Photos

1,825,610 photos uploaded!

WunderBlogs® & News

Nearby

Air Quality

  Air Quality AQ Index Pollutant
Not available.

Snow Depth

Station Depth Elevation

Earthquake Activity

City Distance Mag. Time & Date
Minimum magnitude displayed is 2.5.

Coastal Water Temperatures

Place Temperature

Stations

Nearby Weather Stations

Station Location Temp. Windchill Dew Point Humidity Wind Precip. Elev Updated Type